sensor_id;sensor_type;location;lat;lon;timestamp;temperature;humidity
2855;DHT22;1435;49.472;10.940;2022-12-18T00:04:18;-9.70;99.90
2855;DHT22;1435;49.472;10.940;2022-12-18T00:09:21;-9.70;99.90
2855;DHT22;1435;49.472;10.940;2022-12-18T00:14:23;-9.70;99.90
2855;DHT22;1435;49.472;10.940;2022-12-18T00:19:26;-9.70;99.90
2855;DHT22;1435;49.472;10.940;2022-12-18T00:24:28;-9.80;99.90
2855;DHT22;1435;49.472;10.940;2022-12-18T00:29:30;-9.90;99.90
2855;DHT22;1435;49.472;10.940;2022-12-18T00:34:33;-9.90;99.90
2855;DHT22;1435;49.472;10.940;2022-12-18T00:39:35;-9.90;99.90
2855;DHT22;1435;49.472;10.940;2022-12-18T00:44:36;-9.90;99.90
2855;DHT22;1435;49.472;10.940;2022-12-18T00:54:40;-10.10;99.90
2855;DHT22;1435;49.472;10.940;2022-12-18T00:59:42;-10.10;99.90
2855;DHT22;1435;49.472;10.940;2022-12-18T01:04:45;-10.10;99.90
2855;DHT22;1435;49.472;10.940;2022-12-18T01:09:46;-10.20;99.90
2855;DHT22;1435;49.472;10.940;2022-12-18T01:14:48;-10.20;99.90
2855;DHT22;1435;49.472;10.940;2022-12-18T01:19:51;-10.20;99.90
2855;DHT22;1435;49.472;10.940;2022-12-18T01:24:53;-10.20;99.90
2855;DHT22;1435;49.472;10.940;2022-12-18T01:29:55;-10.10;99.90
2855;DHT22;1435;49.472;10.940;2022-12-18T01:34:58;-10.00;99.90
2855;DHT22;1435;49.472;10.940;2022-12-18T01:40:00;-9.80;99.90
2855;DHT22;1435;49.472;10.940;2022-12-18T01:45:08;-9.70;99.90
2855;DHT22;1435;49.472;10.940;2022-12-18T01:50:27;-9.60;99.90
2855;DHT22;1435;49.472;10.940;2022-12-18T01:55:32;-9.40;99.90
2855;DHT22;1435;49.472;10.940;2022-12-18T02:00:36;-9.20;99.90
2855;DHT22;1435;49.472;10.940;2022-12-18T02:05:44;-9.10;99.90
2855;DHT22;1435;49.472;10.940;2022-12-18T02:10:54;-9.00;99.90
2855;DHT22;1435;49.472;10.940;2022-12-18T02:16:02;-8.80;99.90
2855;DHT22;1435;49.472;10.940;2022-12-18T02:21:15;-8.70;99.90
2855;DHT22;1435;49.472;10.940;2022-12-18T02:26:27;-8.50;99.90
2855;DHT22;1435;49.472;10.940;2022-12-18T02:31:34;-8.30;99.90
2855;DHT22;1435;49.472;10.940;2022-12-18T02:36:39;-8.10;99.90
2855;DHT22;1435;49.472;10.940;2022-12-18T02:41:43;-8.00;99.90
2855;DHT22;1435;49.472;10.940;2022-12-18T02:46:47;-7.90;99.90
2855;DHT22;1435;49.472;10.940;2022-12-18T02:51:53;-7.70;99.90
2855;DHT22;1435;49.472;10.940;2022-12-18T02:57:05;-7.60;99.90
2855;DHT22;1435;49.472;10.940;2022-12-18T03:02:19;-7.40;99.90
2855;DHT22;1435;49.472;10.940;2022-12-18T03:07:28;-7.30;99.90
2855;DHT22;1435;49.472;10.940;2022-12-18T03:12:38;-7.20;99.90
2855;DHT22;1435;49.472;10.940;2022-12-18T03:17:44;-7.00;99.90
2855;DHT22;1435;49.472;10.940;2022-12-18T03:22:52;-6.90;99.90
2855;DHT22;1435;49.472;10.940;2022-12-18T03:27:58;-6.80;99.90
2855;DHT22;1435;49.472;10.940;2022-12-18T03:33:05;-6.70;99.90
2855;DHT22;1435;49.472;10.940;2022-12-18T03:38:09;-6.50;99.90
2855;DHT22;1435;49.472;10.940;2022-12-18T03:43:18;-6.40;99.90
2855;DHT22;1435;49.472;10.940;2022-12-18T03:48:27;-6.30;99.90
2855;DHT22;1435;49.472;10.940;2022-12-18T03:53:35;-6.20;99.90
2855;DHT22;1435;49.472;10.940;2022-12-18T03:58:40;-6.00;99.90
2855;DHT22;1435;49.472;10.940;2022-12-18T04:03:45;-6.00;99.90
2855;DHT22;1435;49.472;10.940;2022-12-18T04:08:47;-5.90;99.90
2855;DHT22;1435;49.472;10.940;2022-12-18T04:13:55;-5.80;99.90
2855;DHT22;1435;49.472;10.940;2022-12-18T04:18:57;-5.70;99.90
2855;DHT22;1435;49.472;10.940;2022-12-18T04:23:59;-5.60;99.90
2855;DHT22;1435;49.472;10.940;2022-12-18T04:29:02;-5.50;99.90
2855;DHT22;1435;49.472;10.940;2022-12-18T04:34:04;-5.30;99.90
2855;DHT22;1435;49.472;10.940;2022-12-18T04:39:06;-5.30;99.90
2855;DHT22;1435;49.472;10.940;2022-12-18T04:44:10;-5.30;99.90
2855;DHT22;1435;49.472;10.940;2022-12-18T04:49:12;-5.20;99.90
2855;DHT22;1435;49.472;10.940;2022-12-18T04:54:13;-5.10;99.90
2855;DHT22;1435;49.472;10.940;2022-12-18T04:59:17;-5.10;99.90
2855;DHT22;1435;49.472;10.940;2022-12-18T05:04:18;-5.00;99.90
2855;DHT22;1435;49.472;10.940;2022-12-18T05:09:20;-5.00;99.90
2855;DHT22;1435;49.472;10.940;2022-12-18T05:14:23;-4.90;99.90
2855;DHT22;1435;49.472;10.940;2022-12-18T05:19:25;-4.90;99.90
2855;DHT22;1435;49.472;10.940;2022-12-18T05:24:27;-4.80;99.90
2855;DHT22;1435;49.472;10.940;2022-12-18T05:29:30;-4.80;99.90
2855;DHT22;1435;49.472;10.940;2022-12-18T05:34:32;-4.70;99.90
2855;DHT22;1435;49.472;10.940;2022-12-18T05:39:34;-4.60;99.90
2855;DHT22;1435;49.472;10.940;2022-12-18T05:44:37;-4.60;99.90
2855;DHT22;1435;49.472;10.940;2022-12-18T05:49:39;-4.50;99.90
2855;DHT22;1435;49.472;10.940;2022-12-18T05:54:40;-4.40;99.90
2855;DHT22;1435;49.472;10.940;2022-12-18T05:59:43;-4.40;99.90
2855;DHT22;1435;49.472;10.940;2022-12-18T06:04:45;-4.30;99.90
2855;DHT22;1435;49.472;10.940;2022-12-18T06:09:47;-4.30;99.90
2855;DHT22;1435;49.472;10.940;2022-12-18T06:14:50;-4.20;99.90
2855;DHT22;1435;49.472;10.940;2022-12-18T06:19:52;-4.20;99.90
2855;DHT22;1435;49.472;10.940;2022-12-18T06:24:54;-4.20;99.90
2855;DHT22;1435;49.472;10.940;2022-12-18T06:29:57;-4.10;99.90
2855;DHT22;1435;49.472;10.940;2022-12-18T06:34:58;-4.00;99.90
2855;DHT22;1435;49.472;10.940;2022-12-18T06:40:00;-3.90;99.90
2855;DHT22;1435;49.472;10.940;2022-12-18T06:45:04;-3.80;99.90
2855;DHT22;1435;49.472;10.940;2022-12-18T06:50:06;-3.80;99.90
2855;DHT22;1435;49.472;10.940;2022-12-18T06:55:08;-3.70;99.90
2855;DHT22;1435;49.472;10.940;2022-12-18T07:00:13;-3.70;99.90
2855;DHT22;1435;49.472;10.940;2022-12-18T07:05:15;-3.60;99.90
2855;DHT22;1435;49.472;10.940;2022-12-18T07:10:16;-3.60;99.90
2855;DHT22;1435;49.472;10.940;2022-12-18T07:15:19;-3.60;99.90
2855;DHT22;1435;49.472;10.940;2022-12-18T07:20:21;-3.60;99.90
2855;DHT22;1435;49.472;10.940;2022-12-18T07:25:23;-3.60;99.90
2855;DHT22;1435;49.472;10.940;2022-12-18T07:30:26;-3.50;99.90
2855;DHT22;1435;49.472;10.940;2022-12-18T07:35:28;-3.40;99.90
2855;DHT22;1435;49.472;10.940;2022-12-18T07:40:30;-3.40;99.90
2855;DHT22;1435;49.472;10.940;2022-12-18T07:45:33;-3.40;99.90
2855;DHT22;1435;49.472;10.940;2022-12-18T07:50:34;-3.40;99.90
2855;DHT22;1435;49.472;10.940;2022-12-18T07:55:36;-3.30;99.90
2855;DHT22;1435;49.472;10.940;2022-12-18T08:00:39;-3.30;99.90
2855;DHT22;1435;49.472;10.940;2022-12-18T08:05:41;-3.20;99.90
2855;DHT22;1435;49.472;10.940;2022-12-18T08:10:43;-3.10;99.90
2855;DHT22;1435;49.472;10.940;2022-12-18T08:15:46;-3.10;99.90
2855;DHT22;1435;49.472;10.940;2022-12-18T08:20:48;-3.10;99.90
2855;DHT22;1435;49.472;10.940;2022-12-18T08:25:49;-3.00;99.90
2855;DHT22;1435;49.472;10.940;2022-12-18T08:30:53;-2.90;99.90
2855;DHT22;1435;49.472;10.940;2022-12-18T08:35:54;-3.00;99.90
2855;DHT22;1435;49.472;10.940;2022-12-18T08:40:58;-2.90;99.90
2855;DHT22;1435;49.472;10.940;2022-12-18T08:46:02;-2.80;99.90
2855;DHT22;1435;49.472;10.940;2022-12-18T08:51:04;-2.70;99.90
2855;DHT22;1435;49.472;10.940;2022-12-18T08:56:07;-2.80;99.90
2855;DHT22;1435;49.472;10.940;2022-12-18T09:01:11;-2.70;99.90
2855;DHT22;1435;49.472;10.940;2022-12-18T09:06:14;-2.60;99.90
2855;DHT22;1435;49.472;10.940;2022-12-18T09:11:20;-2.60;99.90
2855;DHT22;1435;49.472;10.940;2022-12-18T09:16:25;-2.60;99.90
2855;DHT22;1435;49.472;10.940;2022-12-18T09:21:29;-2.50;99.90
2855;DHT22;1435;49.472;10.940;2022-12-18T09:26:31;-2.40;99.90
2855;DHT22;1435;49.472;10.940;2022-12-18T09:31:35;-2.40;99.90
2855;DHT22;1435;49.472;10.940;2022-12-18T09:36:38;-2.30;99.90
2855;DHT22;1435;49.472;10.940;2022-12-18T09:41:45;-2.20;99.90
2855;DHT22;1435;49.472;10.940;2022-12-18T09:46:54;-2.20;99.90
2855;DHT22;1435;49.472;10.940;2022-12-18T09:52:01;-2.20;99.90
2855;DHT22;1435;49.472;10.940;2022-12-18T09:57:04;-2.00;99.90
2855;DHT22;1435;49.472;10.940;2022-12-18T10:02:19;-2.10;99.90
2855;DHT22;1435;49.472;10.940;2022-12-18T10:07:26;-2.00;99.90
2855;DHT22;1435;49.472;10.940;2022-12-18T10:12:34;-1.90;99.90
2855;DHT22;1435;49.472;10.940;2022-12-18T10:17:45;-1.90;99.90
2855;DHT22;1435;49.472;10.940;2022-12-18T10:22:54;-1.80;99.90
2855;DHT22;1435;49.472;10.940;2022-12-18T10:28:09;-1.80;99.90
2855;DHT22;1435;49.472;10.940;2022-12-18T10:33:16;-1.80;99.90
2855;DHT22;1435;49.472;10.940;2022-12-18T10:38:23;-1.80;99.90
2855;DHT22;1435;49.472;10.940;2022-12-18T10:43:27;-1.80;99.90
2855;DHT22;1435;49.472;10.940;2022-12-18T10:48:33;-1.90;99.90
2855;DHT22;1435;49.472;10.940;2022-12-18T10:53:36;-1.80;99.90
2855;DHT22;1435;49.472;10.940;2022-12-18T10:58:39;-1.90;99.90
2855;DHT22;1435;49.472;10.940;2022-12-18T11:03:43;-1.90;99.90
2855;DHT22;1435;49.472;10.940;2022-12-18T11:08:58;-1.80;99.90
2855;DHT22;1435;49.472;10.940;2022-12-18T11:14:03;-1.80;99.90
2855;DHT22;1435;49.472;10.940;2022-12-18T11:19:28;-1.80;99.90
2855;DHT22;1435;49.472;10.940;2022-12-18T11:24:33;-1.80;99.90
2855;DHT22;1435;49.472;10.940;2022-12-18T11:29:38;-1.80;99.90
2855;DHT22;1435;49.472;10.940;2022-12-18T11:34:44;-1.70;99.90
2855;DHT22;1435;49.472;10.940;2022-12-18T11:39:52;-1.60;99.90
2855;DHT22;1435;49.472;10.940;2022-12-18T11:44:59;-1.70;99.90
2855;DHT22;1435;49.472;10.940;2022-12-18T11:50:12;-1.70;99.90
2855;DHT22;1435;49.472;10.940;2022-12-18T11:55:16;-1.60;99.90
2855;DHT22;1435;49.472;10.940;2022-12-18T12:00:22;-1.50;99.90
2855;DHT22;1435;49.472;10.940;2022-12-18T12:05:38;-1.60;99.90
2855;DHT22;1435;49.472;10.940;2022-12-18T12:10:51;-1.70;99.90
2855;DHT22;1435;49.472;10.940;2022-12-18T12:16:08;-1.70;99.90
2855;DHT22;1435;49.472;10.940;2022-12-18T12:21:22;-1.60;99.90
2855;DHT22;1435;49.472;10.940;2022-12-18T12:26:33;-1.50;99.90
2855;DHT22;1435;49.472;10.940;2022-12-18T12:31:45;-1.50;99.90
2855;DHT22;1435;49.472;10.940;2022-12-18T12:37:02;-1.40;99.90
2855;DHT22;1435;49.472;10.940;2022-12-18T12:42:14;-1.30;99.90
2855;DHT22;1435;49.472;10.940;2022-12-18T12:47:38;-1.20;99.90
2855;DHT22;1435;49.472;10.940;2022-12-18T12:52:45;-1.20;99.90
2855;DHT22;1435;49.472;10.940;2022-12-18T12:57:55;-1.20;99.90
2855;DHT22;1435;49.472;10.940;2022-12-18T13:03:04;-1.10;99.90
2855;DHT22;1435;49.472;10.940;2022-12-18T13:08:12;-1.10;99.90
2855;DHT22;1435;49.472;10.940;2022-12-18T13:13:23;-1.00;99.90
2855;DHT22;1435;49.472;10.940;2022-12-18T13:18:25;-0.90;99.90
2855;DHT22;1435;49.472;10.940;2022-12-18T13:23:32;-0.80;99.90
2855;DHT22;1435;49.472;10.940;2022-12-18T13:28:52;-0.70;99.90
2855;DHT22;1435;49.472;10.940;2022-12-18T13:34:12;-0.70;99.90
2855;DHT22;1435;49.472;10.940;2022-12-18T13:39:25;-0.70;99.90
2855;DHT22;1435;49.472;10.940;2022-12-18T13:44:33;-0.60;99.90
2855;DHT22;1435;49.472;10.940;2022-12-18T13:49:38;-0.70;99.90
2855;DHT22;1435;49.472;10.940;2022-12-18T13:54:42;-0.90;99.90
2855;DHT22;1435;49.472;10.940;2022-12-18T13:59:46;-0.70;99.90
2855;DHT22;1435;49.472;10.940;2022-12-18T14:04:49;-0.60;99.90
2855;DHT22;1435;49.472;10.940;2022-12-18T14:09:53;-0.60;99.90
2855;DHT22;1435;49.472;10.940;2022-12-18T14:14:57;-0.50;99.90
2855;DHT22;1435;49.472;10.940;2022-12-18T14:20:00;-0.50;99.90
2855;DHT22;1435;49.472;10.940;2022-12-18T14:25:15;-0.40;99.90
2855;DHT22;1435;49.472;10.940;2022-12-18T14:30:24;-0.50;99.90
2855;DHT22;1435;49.472;10.940;2022-12-18T14:35:26;-0.40;99.90
2855;DHT22;1435;49.472;10.940;2022-12-18T14:40:29;-0.50;99.90
2855;DHT22;1435;49.472;10.940;2022-12-18T14:45:35;-0.50;99.90
2855;DHT22;1435;49.472;10.940;2022-12-18T14:50:38;-0.60;99.90
2855;DHT22;1435;49.472;10.940;2022-12-18T14:55:45;-0.60;99.90
2855;DHT22;1435;49.472;10.940;2022-12-18T15:00:48;-0.60;99.90
2855;DHT22;1435;49.472;10.940;2022-12-18T15:05:50;-0.70;99.90
2855;DHT22;1435;49.472;10.940;2022-12-18T15:10:53;-0.90;99.90
2855;DHT22;1435;49.472;10.940;2022-12-18T15:15:55;-0.80;99.90
2855;DHT22;1435;49.472;10.940;2022-12-18T15:21:00;-0.80;99.90
2855;DHT22;1435;49.472;10.940;2022-12-18T15:26:11;-1.20;99.90
2855;DHT22;1435;49.472;10.940;2022-12-18T15:31:23;-1.20;99.90
2855;DHT22;1435;49.472;10.940;2022-12-18T15:36:25;-1.10;99.90
2855;DHT22;1435;49.472;10.940;2022-12-18T15:41:31;-1.10;99.90
2855;DHT22;1435;49.472;10.940;2022-12-18T15:46:33;-1.10;99.90
2855;DHT22;1435;49.472;10.940;2022-12-18T15:51:35;-1.10;99.90
2855;DHT22;1435;49.472;10.940;2022-12-18T15:56:39;-1.10;99.90
2855;DHT22;1435;49.472;10.940;2022-12-18T16:01:57;-1.20;99.90
2855;DHT22;1435;49.472;10.940;2022-12-18T16:06:59;-1.30;99.90
2855;DHT22;1435;49.472;10.940;2022-12-18T16:12:03;-1.30;99.90
2855;DHT22;1435;49.472;10.940;2022-12-18T16:17:08;-1.50;99.90
2855;DHT22;1435;49.472;10.940;2022-12-18T16:22:18;-1.50;99.90
2855;DHT22;1435;49.472;10.940;2022-12-18T16:27:23;-1.40;99.90
2855;DHT22;1435;49.472;10.940;2022-12-18T16:32:25;-1.40;99.90
2855;DHT22;1435;49.472;10.940;2022-12-18T16:37:27;-1.50;99.90
2855;DHT22;1435;49.472;10.940;2022-12-18T16:42:30;-1.50;99.90
2855;DHT22;1435;49.472;10.940;2022-12-18T16:47:33;-1.50;99.90
2855;DHT22;1435;49.472;10.940;2022-12-18T16:52:34;-1.50;99.90
2855;DHT22;1435;49.472;10.940;2022-12-18T16:57:38;-1.50;99.90
2855;DHT22;1435;49.472;10.940;2022-12-18T17:02:39;-1.50;99.90
2855;DHT22;1435;49.472;10.940;2022-12-18T17:07:41;-1.50;99.90
2855;DHT22;1435;49.472;10.940;2022-12-18T17:12:44;-1.50;99.90
2855;DHT22;1435;49.472;10.940;2022-12-18T17:17:46;-1.50;99.90
2855;DHT22;1435;49.472;10.940;2022-12-18T17:22:48;-1.50;99.90
2855;DHT22;1435;49.472;10.940;2022-12-18T17:27:51;-1.50;99.90
2855;DHT22;1435;49.472;10.940;2022-12-18T17:32:53;-1.50;99.90
2855;DHT22;1435;49.472;10.940;2022-12-18T17:37:55;-1.60;99.90
2855;DHT22;1435;49.472;10.940;2022-12-18T17:42:58;-1.60;99.90
2855;DHT22;1435;49.472;10.940;2022-12-18T17:48:00;-1.70;99.90
2855;DHT22;1435;49.472;10.940;2022-12-18T17:53:02;-1.80;99.90
2855;DHT22;1435;49.472;10.940;2022-12-18T17:58:05;-1.70;99.90
2855;DHT22;1435;49.472;10.940;2022-12-18T18:03:07;-1.70;99.90
2855;DHT22;1435;49.472;10.940;2022-12-18T18:08:09;-1.70;99.90
2855;DHT22;1435;49.472;10.940;2022-12-18T18:13:18;-1.80;99.90
2855;DHT22;1435;49.472;10.940;2022-12-18T18:18:37;-1.80;99.90
2855;DHT22;1435;49.472;10.940;2022-12-18T18:23:39;-1.90;99.90
2855;DHT22;1435;49.472;10.940;2022-12-18T18:28:42;-1.90;99.90
2855;DHT22;1435;49.472;10.940;2022-12-18T18:33:44;-1.90;99.90
2855;DHT22;1435;49.472;10.940;2022-12-18T18:38:46;-1.90;99.90
2855;DHT22;1435;49.472;10.940;2022-12-18T18:43:53;-1.90;99.90
2855;DHT22;1435;49.472;10.940;2022-12-18T18:48:55;-1.90;99.90
2855;DHT22;1435;49.472;10.940;2022-12-18T18:53:56;-1.90;99.90
2855;DHT22;1435;49.472;10.940;2022-12-18T18:59:00;-1.90;99.90
2855;DHT22;1435;49.472;10.940;2022-12-18T19:04:02;-1.80;99.90
2855;DHT22;1435;49.472;10.940;2022-12-18T19:09:04;-1.80;99.90
2855;DHT22;1435;49.472;10.940;2022-12-18T19:14:09;-1.80;99.90
2855;DHT22;1435;49.472;10.940;2022-12-18T19:19:11;-1.80;99.90
2855;DHT22;1435;49.472;10.940;2022-12-18T19:24:14;-1.90;99.90
2855;DHT22;1435;49.472;10.940;2022-12-18T19:29:17;-1.80;99.90
2855;DHT22;1435;49.472;10.940;2022-12-18T19:34:19;-1.90;99.90
2855;DHT22;1435;49.472;10.940;2022-12-18T19:39:20;-2.10;99.90
2855;DHT22;1435;49.472;10.940;2022-12-18T19:44:24;-2.00;99.90
2855;DHT22;1435;49.472;10.940;2022-12-18T19:49:26;-2.00;99.90
2855;DHT22;1435;49.472;10.940;2022-12-18T19:54:29;-1.90;99.90
2855;DHT22;1435;49.472;10.940;2022-12-18T19:59:32;-2.00;99.90
2855;DHT22;1435;49.472;10.940;2022-12-18T20:04:36;-2.00;99.90
2855;DHT22;1435;49.472;10.940;2022-12-18T20:09:38;-2.00;99.90
2855;DHT22;1435;49.472;10.940;2022-12-18T20:14:41;-1.90;99.90
2855;DHT22;1435;49.472;10.940;2022-12-18T20:19:43;-1.80;99.90
2855;DHT22;1435;49.472;10.940;2022-12-18T20:24:44;-1.80;99.90
2855;DHT22;1435;49.472;10.940;2022-12-18T20:29:47;-1.80;99.90
2855;DHT22;1435;49.472;10.940;2022-12-18T20:34:49;-1.80;99.90
2855;DHT22;1435;49.472;10.940;2022-12-18T20:39:51;-1.70;99.90
2855;DHT22;1435;49.472;10.940;2022-12-18T20:44:54;-1.70;99.90
2855;DHT22;1435;49.472;10.940;2022-12-18T20:49:56;-1.80;99.90
2855;DHT22;1435;49.472;10.940;2022-12-18T20:55:03;-1.80;99.90
2855;DHT22;1435;49.472;10.940;2022-12-18T21:00:08;-1.80;99.90
2855;DHT22;1435;49.472;10.940;2022-12-18T21:05:10;-1.80;99.90
2855;DHT22;1435;49.472;10.940;2022-12-18T21:10:12;-1.80;99.90
2855;DHT22;1435;49.472;10.940;2022-12-18T21:15:16;-1.80;99.90
2855;DHT22;1435;49.472;10.940;2022-12-18T21:20:17;-1.80;99.90
2855;DHT22;1435;49.472;10.940;2022-12-18T21:25:19;-1.80;99.90
2855;DHT22;1435;49.472;10.940;2022-12-18T21:30:22;-1.80;99.90
2855;DHT22;1435;49.472;10.940;2022-12-18T21:35:24;-1.80;99.90
2855;DHT22;1435;49.472;10.940;2022-12-18T21:40:26;-2.00;99.90
2855;DHT22;1435;49.472;10.940;2022-12-18T21:45:29;-2.20;99.90
2855;DHT22;1435;49.472;10.940;2022-12-18T21:50:31;-2.10;99.90
2855;DHT22;1435;49.472;10.940;2022-12-18T21:55:33;-2.10;99.90
2855;DHT22;1435;49.472;10.940;2022-12-18T22:00:36;-2.00;99.90
2855;DHT22;1435;49.472;10.940;2022-12-18T22:05:38;-2.00;99.90
2855;DHT22;1435;49.472;10.940;2022-12-18T22:10:40;-2.00;99.90
2855;DHT22;1435;49.472;10.940;2022-12-18T22:15:43;-2.10;99.90
2855;DHT22;1435;49.472;10.940;2022-12-18T22:20:45;-2.10;99.90
2855;DHT22;1435;49.472;10.940;2022-12-18T22:25:46;-2.40;99.90
2855;DHT22;1435;49.472;10.940;2022-12-18T22:30:50;-2.20;99.90
2855;DHT22;1435;49.472;10.940;2022-12-18T22:35:51;-2.10;99.90
2855;DHT22;1435;49.472;10.940;2022-12-18T22:40:53;-2.00;99.90
2855;DHT22;1435;49.472;10.940;2022-12-18T22:45:57;-1.90;99.90
2855;DHT22;1435;49.472;10.940;2022-12-18T22:50:58;-1.90;99.90
2855;DHT22;1435;49.472;10.940;2022-12-18T22:56:00;-1.80;99.90
2855;DHT22;1435;49.472;10.940;2022-12-18T23:01:04;-1.70;99.90
2855;DHT22;1435;49.472;10.940;2022-12-18T23:06:07;-1.80;99.90
2855;DHT22;1435;49.472;10.940;2022-12-18T23:11:11;-1.80;99.90
2855;DHT22;1435;49.472;10.940;2022-12-18T23:16:17;-1.80;99.90
2855;DHT22;1435;49.472;10.940;2022-12-18T23:21:20;-1.80;99.90
2855;DHT22;1435;49.472;10.940;2022-12-18T23:26:24;-1.60;99.90
2855;DHT22;1435;49.472;10.940;2022-12-18T23:31:29;-1.50;99.90
2855;DHT22;1435;49.472;10.940;2022-12-18T23:36:31;-1.60;99.90
2855;DHT22;1435;49.472;10.940;2022-12-18T23:41:32;-1.60;99.90
2855;DHT22;1435;49.472;10.940;2022-12-18T23:46:36;-1.60;99.90
2855;DHT22;1435;49.472;10.940;2022-12-18T23:51:38;-1.60;99.90
2855;DHT22;1435;49.472;10.940;2022-12-18T23:56:39;-1.60;99.90
